createdAt,value
2023-01-22T00:00:17.289Z,-1.34
2023-01-22T00:05:19.033Z,-1.34
2023-01-22T00:10:20.630Z,-1.32
2023-01-22T00:15:22.180Z,-1.34
2023-01-22T00:20:23.706Z,-1.38
2023-01-22T00:25:25.197Z,-1.42
2023-01-22T00:30:26.771Z,-1.45
2023-01-22T00:35:28.457Z,-1.47
2023-01-22T00:40:30.024Z,-1.47
2023-01-22T00:45:32.092Z,-1.47
2023-01-22T00:50:34.964Z,-1.50
2023-01-22T00:55:36.512Z,-1.49
2023-01-22T01:00:38.052Z,-1.49
2023-01-22T01:05:39.812Z,-1.49
2023-01-22T01:10:41.327Z,-1.48
2023-01-22T01:15:43.306Z,-1.46
2023-01-22T01:20:44.922Z,-1.46
2023-01-22T01:25:46.462Z,-1.45
2023-01-22T01:30:48.115Z,-1.40
2023-01-22T01:35:49.647Z,-1.38
2023-01-22T01:40:51.727Z,-1.34
2023-01-22T01:45:54.834Z,-1.29
2023-01-22T01:51:05.408Z,-1.22
2023-01-22T01:56:12.664Z,-1.16
2023-01-22T02:01:16.888Z,-1.18
2023-01-22T02:06:19.715Z,-1.14
2023-01-22T02:11:22.654Z,-1.06
2023-01-22T02:16:24.275Z,-1.12
2023-01-22T02:21:46.044Z,-1.06
2023-01-22T02:26:47.586Z,-1.03
2023-01-22T02:31:53.646Z,-1.10
2023-01-22T02:36:55.465Z,-1.09
2023-01-22T02:41:58.261Z,-1.04
2023-01-22T02:47:00.143Z,-1.04
2023-01-22T02:52:02.585Z,-0.96
2023-01-22T02:57:05.093Z,-0.95
2023-01-22T03:02:06.714Z,-1.12
2023-01-22T03:07:08.324Z,-1.13
2023-01-22T03:12:10.634Z,-1.14
2023-01-22T03:17:31.773Z,-1.05
2023-01-22T03:22:34.468Z,-1.07
2023-01-22T03:27:36.797Z,-1.03
2023-01-22T03:32:38.471Z,-0.99
2023-01-22T03:37:43.875Z,-1.02
2023-01-22T03:42:45.451Z,-1.09
2023-01-22T03:47:47.686Z,-1.09
2023-01-22T03:52:57.754Z,-1.08
2023-01-22T03:57:59.467Z,-1.09
2023-01-22T04:03:01.157Z,-1.08
2023-01-22T04:08:09.043Z,-1.10
2023-01-22T04:13:14.577Z,-1.08
2023-01-22T04:18:20.284Z,-1.00
2023-01-22T04:23:36.441Z,-1.01
2023-01-22T04:28:38.181Z,-1.03
2023-01-22T04:33:39.926Z,-1.01
2023-01-22T04:38:48.191Z,-0.98
2023-01-22T04:43:49.770Z,-0.93
2023-01-22T04:48:51.660Z,-1.00
2023-01-22T04:53:54.069Z,-1.02
2023-01-22T04:58:55.785Z,-1.06
2023-01-22T05:04:01.578Z,-0.96
2023-01-22T05:09:04.828Z,-1.03
2023-01-22T05:14:17.624Z,-1.08
2023-01-22T05:19:21.279Z,-1.11
2023-01-22T05:24:23.420Z,-1.14
2023-01-22T05:29:27.048Z,-1.10
2023-01-22T05:34:52.368Z,-1.04
2023-01-22T05:39:53.937Z,-1.04
2023-01-22T05:44:55.629Z,-1.06
2023-01-22T05:49:59.577Z,-0.96
2023-01-22T05:55:01.919Z,-1.00
2023-01-22T06:00:10.235Z,-0.95
2023-01-22T06:05:17.986Z,-0.91
2023-01-22T06:10:24.671Z,-0.81
2023-01-22T06:15:26.430Z,-0.74
2023-01-22T06:20:36.942Z,-0.70
2023-01-22T06:25:38.513Z,-0.65
2023-01-22T06:30:48.386Z,-0.60
2023-01-22T06:35:54.800Z,-0.54
2023-01-22T06:40:59.037Z,-0.55
2023-01-22T06:46:03.349Z,-0.51
2023-01-22T06:51:29.569Z,-0.47
2023-01-22T06:56:31.397Z,-0.40
2023-01-22T07:01:37.885Z,-0.38
2023-01-22T07:06:39.425Z,-0.33
2023-01-22T07:11:40.989Z,-0.24
2023-01-22T07:16:42.515Z,-0.21
2023-01-22T07:21:44.139Z,-0.19
2023-01-22T07:26:46.380Z,-0.10
2023-01-22T07:31:49.780Z,-0.09
2023-01-22T07:36:51.520Z,-0.05
2023-01-22T07:41:53.029Z,-0.02
2023-01-22T07:46:54.713Z,0.01
2023-01-22T07:51:56.344Z,0.09
2023-01-22T07:56:57.876Z,0.15
2023-01-22T08:02:01.168Z,0.24
2023-01-22T08:07:04.733Z,0.48
2023-01-22T08:12:06.314Z,0.85
2023-01-22T08:17:07.841Z,1.10
2023-01-22T08:22:09.340Z,1.26
2023-01-22T08:27:10.906Z,1.23
2023-01-22T08:32:12.460Z,1.14
2023-01-22T08:37:14.041Z,1.09
2023-01-22T08:42:15.900Z,1.20
2023-01-22T08:47:17.474Z,1.22
2023-01-22T08:52:19.033Z,1.20
2023-01-22T08:57:20.717Z,0.99
2023-01-22T09:02:22.297Z,0.81
2023-01-22T09:07:23.824Z,0.67
2023-01-22T09:12:25.342Z,0.65
2023-01-22T09:17:28.066Z,0.66
2023-01-22T09:22:29.573Z,0.57
2023-01-22T09:27:31.087Z,0.56
2023-01-22T09:32:32.691Z,0.57
2023-01-22T09:37:34.501Z,0.56
2023-01-22T09:42:40.457Z,0.71
2023-01-22T09:47:49.089Z,0.59
2023-01-22T09:52:53.616Z,0.44
2023-01-22T09:58:00.179Z,0.46
2023-01-22T10:03:06.521Z,0.42
2023-01-22T10:08:13.476Z,0.25
2023-01-22T10:13:34.072Z,0.25
2023-01-22T10:18:50.865Z,0.25
2023-01-22T10:23:56.122Z,0.12
2023-01-22T10:28:59.063Z,0.10
2023-01-22T10:34:03.667Z,0.16
2023-01-22T10:39:14.242Z,0.16
2023-01-22T10:44:15.696Z,0.26
2023-01-22T10:49:24.647Z,0.31
2023-01-22T10:54:32.156Z,0.29
2023-01-22T10:59:34.365Z,0.34
2023-01-22T11:04:36.167Z,0.49
2023-01-22T11:09:57.960Z,0.57
2023-01-22T11:15:18.087Z,0.71
2023-01-22T11:20:44.241Z,0.81
2023-01-22T11:25:54.663Z,0.92
2023-01-22T11:31:12.823Z,1.05
2023-01-22T11:36:27.152Z,1.16
2023-01-22T11:41:59.251Z,1.25
2023-01-22T11:47:16.826Z,1.22
2023-01-22T11:52:33.155Z,1.27
2023-01-22T11:57:43.475Z,1.17
2023-01-22T12:03:10.686Z,1.13
2023-01-22T12:08:37.719Z,1.30
2023-01-22T12:14:04.063Z,1.44
2023-01-22T12:19:24.258Z,1.55
2023-01-22T12:24:36.051Z,1.62
2023-01-22T12:29:43.805Z,1.77
2023-01-22T12:34:56.685Z,1.87
2023-01-22T12:40:23.780Z,1.96
2023-01-22T12:45:31.940Z,2.04
2023-01-22T12:50:33.501Z,1.97
2023-01-22T12:55:41.632Z,2.09
2023-01-22T13:00:44.720Z,2.20
2023-01-22T13:05:47.073Z,2.24
2023-01-22T13:11:00.187Z,2.30
2023-01-22T13:16:16.468Z,2.25
2023-01-22T13:21:25.055Z,2.10
2023-01-22T13:26:29.211Z,2.13
2023-01-22T13:31:31.135Z,2.07
2023-01-22T13:36:32.638Z,1.88
2023-01-22T13:41:38.919Z,1.74
2023-01-22T13:46:40.566Z,1.64
2023-01-22T13:51:42.669Z,1.63
2023-01-22T13:56:44.345Z,1.58
2023-01-22T14:01:46.720Z,1.59
2023-01-22T14:06:49.547Z,1.63
2023-01-22T14:11:51.280Z,1.63
2023-01-22T14:16:53.149Z,1.58
2023-01-22T14:21:54.659Z,1.67
2023-01-22T14:26:57.197Z,1.73
2023-01-22T14:31:58.854Z,1.74
2023-01-22T14:37:00.424Z,1.85
2023-01-22T14:42:02.239Z,1.98
2023-01-22T14:47:04.251Z,2.03
2023-01-22T14:52:05.859Z,2.13
2023-01-22T14:57:09.645Z,2.20
2023-01-22T15:02:11.241Z,2.27
2023-01-22T15:07:12.897Z,2.25
2023-01-22T15:12:14.418Z,2.12
2023-01-22T15:17:15.924Z,1.90
2023-01-22T15:22:17.664Z,1.78
2023-01-22T15:27:19.191Z,1.57
2023-01-22T15:32:20.849Z,1.32
2023-01-22T15:37:23.703Z,1.20
2023-01-22T15:42:25.238Z,1.06
2023-01-22T15:47:29.136Z,0.96
2023-01-22T15:52:30.675Z,0.92
2023-01-22T15:57:32.226Z,0.85
2023-01-22T16:02:33.783Z,0.82
2023-01-22T16:07:35.344Z,0.78
2023-01-22T16:12:38.069Z,0.70
2023-01-22T16:17:39.569Z,0.66
2023-01-22T16:22:45.485Z,0.62
2023-01-22T16:27:47.011Z,0.62
2023-01-22T16:32:49.038Z,0.61
2023-01-22T16:37:50.761Z,0.60
2023-01-22T16:43:01.555Z,0.62
2023-01-22T16:48:03.118Z,0.63
2023-01-22T16:53:04.641Z,0.66
2023-01-22T16:58:06.218Z,0.69
2023-01-22T17:03:07.730Z,0.74
2023-01-22T17:08:09.347Z,0.73
2023-01-22T17:13:10.922Z,0.74
2023-01-22T17:18:13.209Z,0.74
2023-01-22T17:23:14.747Z,0.77
2023-01-22T17:28:16.337Z,0.82
2023-01-22T17:33:20.800Z,0.79
2023-01-22T17:38:23.676Z,0.76
2023-01-22T17:43:25.198Z,0.72
2023-01-22T17:48:27.943Z,0.69
2023-01-22T17:53:29.462Z,0.71
2023-01-22T17:58:30.967Z,0.73
2023-01-22T18:03:33.378Z,0.67
2023-01-22T18:08:38.447Z,0.62
2023-01-22T18:13:40.302Z,0.65
2023-01-22T18:18:42.817Z,0.65
2023-01-22T18:23:45.464Z,0.68
2023-01-22T18:28:46.997Z,0.67
2023-01-22T18:33:49.435Z,0.68
2023-01-22T18:38:51.320Z,0.65
2023-01-22T18:43:58.867Z,0.61
2023-01-22T18:49:05.741Z,0.62
2023-01-22T18:54:08.151Z,0.69
2023-01-22T18:59:09.763Z,0.79
2023-01-22T19:04:17.901Z,0.86
2023-01-22T19:09:20.939Z,0.83
2023-01-22T19:14:22.546Z,0.82
2023-01-22T19:19:24.341Z,0.73
2023-01-22T19:24:28.388Z,0.69
2023-01-22T19:29:29.990Z,0.71
2023-01-22T19:34:33.872Z,0.68
2023-01-22T19:39:35.841Z,0.69
2023-01-22T19:44:39.988Z,0.65
2023-01-22T19:49:41.891Z,0.58
2023-01-22T19:54:47.369Z,0.54
2023-01-22T19:59:57.262Z,0.48
2023-01-22T20:04:58.781Z,0.43
2023-01-22T20:10:00.301Z,0.41
2023-01-22T20:15:02.048Z,0.37
2023-01-22T20:20:07.210Z,0.34
2023-01-22T20:25:09.141Z,0.33
2023-01-22T20:30:11.358Z,0.32
2023-01-22T20:35:15.517Z,0.30
2023-01-22T20:40:18.516Z,0.31
2023-01-22T20:45:20.335Z,0.35
2023-01-22T20:50:22.602Z,0.38
2023-01-22T20:55:24.613Z,0.38
2023-01-22T21:00:26.217Z,0.36
2023-01-22T21:05:28.725Z,0.37
2023-01-22T21:10:30.286Z,0.39
2023-01-22T21:15:33.583Z,0.40
2023-01-22T21:20:37.310Z,0.44
2023-01-22T21:25:38.922Z,0.43
2023-01-22T21:30:43.416Z,0.39
2023-01-22T21:35:51.047Z,0.32
2023-01-22T21:40:52.695Z,0.19
2023-01-22T21:46:12.713Z,0.11
2023-01-22T21:51:14.960Z,0.07
2023-01-22T21:56:16.555Z,0.02
2023-01-22T22:01:21.336Z,0.00
2023-01-22T22:06:22.995Z,-0.05
2023-01-22T22:11:25.182Z,-0.07
2023-01-22T22:16:27.122Z,-0.10
2023-01-22T22:21:28.729Z,-0.15
2023-01-22T22:26:30.496Z,-0.19
2023-01-22T22:31:32.276Z,-0.23
2023-01-22T22:36:34.130Z,-0.23
2023-01-22T22:41:37.059Z,-0.29
2023-01-22T22:46:39.749Z,-0.25
2023-01-22T22:51:42.792Z,-0.19
2023-01-22T22:56:45.976Z,-0.11
2023-01-22T23:01:49.051Z,-0.12
2023-01-22T23:06:51.972Z,-0.15
2023-01-22T23:11:55.992Z,-0.12
2023-01-22T23:16:57.873Z,-0.07
2023-01-22T23:22:00.350Z,-0.07
2023-01-22T23:27:01.903Z,-0.10
2023-01-22T23:32:03.547Z,-0.16
2023-01-22T23:37:05.063Z,-0.27
2023-01-22T23:42:06.650Z,-0.36
2023-01-22T23:47:08.336Z,-0.41
2023-01-22T23:52:09.872Z,-0.49
2023-01-22T23:57:11.530Z,-0.60
